sensor_id;sensor_type;location;lat;lon;timestamp;P1;durP1;ratioP1;P2;durP2;ratioP2
68886;SDS011;55925;51.764;6.402;2023-04-24T00:00:08;7.43;;;3.28;;
68886;SDS011;55925;51.764;6.402;2023-04-24T00:02:35;6.93;;;3.28;;
68886;SDS011;55925;51.764;6.402;2023-04-24T00:05:04;6.13;;;2.50;;
68886;SDS011;55925;51.764;6.402;2023-04-24T00:07:30;4.70;;;2.25;;
68886;SDS011;55925;51.764;6.402;2023-04-24T00:09:56;4.47;;;2.22;;
68886;SDS011;55925;51.764;6.402;2023-04-24T00:12:23;4.30;;;1.85;;
68886;SDS011;55925;51.764;6.402;2023-04-24T00:14:49;8.32;;;2.03;;
68886;SDS011;55925;51.764;6.402;2023-04-24T00:17:15;4.60;;;1.73;;
68886;SDS011;55925;51.764;6.402;2023-04-24T00:19:44;3.78;;;1.88;;
68886;SDS011;55925;51.764;6.402;2023-04-24T00:22:10;4.45;;;1.50;;
68886;SDS011;55925;51.764;6.402;2023-04-24T00:24:38;3.10;;;1.30;;
68886;SDS011;55925;51.764;6.402;2023-04-24T00:27:04;4.25;;;1.52;;
68886;SDS011;55925;51.764;6.402;2023-04-24T00:29:30;3.35;;;1.52;;
68886;SDS011;55925;51.764;6.402;2023-04-24T00:31:56;3.92;;;1.80;;
68886;SDS011;55925;51.764;6.402;2023-04-24T00:34:22;5.85;;;2.83;;
68886;SDS011;55925;51.764;6.402;2023-04-24T00:36:48;6.07;;;2.85;;
68886;SDS011;55925;51.764;6.402;2023-04-24T00:39:17;6.75;;;4.32;;
68886;SDS011;55925;51.764;6.402;2023-04-24T00:41:43;8.88;;;4.82;;
68886;SDS011;55925;51.764;6.402;2023-04-24T00:44:10;10.25;;;5.90;;
68886;SDS011;55925;51.764;6.402;2023-04-24T00:46:36;11.15;;;6.60;;
68886;SDS011;55925;51.764;6.402;2023-04-24T00:49:02;12.65;;;6.72;;
68886;SDS011;55925;51.764;6.402;2023-04-24T00:51:28;13.80;;;7.97;;
68886;SDS011;55925;51.764;6.402;2023-04-24T00:53:55;18.02;;;8.88;;
68886;SDS011;55925;51.764;6.402;2023-04-24T00:56:21;15.48;;;8.95;;
68886;SDS011;55925;51.764;6.402;2023-04-24T00:58:48;14.82;;;8.75;;
68886;SDS011;55925;51.764;6.402;2023-04-24T01:01:14;15.55;;;8.35;;
68886;SDS011;55925;51.764;6.402;2023-04-24T01:03:40;16.95;;;8.00;;
68886;SDS011;55925;51.764;6.402;2023-04-24T01:06:07;15.55;;;8.73;;
68886;SDS011;55925;51.764;6.402;2023-04-24T01:08:34;15.77;;;8.02;;
68886;SDS011;55925;51.764;6.402;2023-04-24T01:11:01;15.55;;;8.65;;
68886;SDS011;55925;51.764;6.402;2023-04-24T01:13:28;14.32;;;8.13;;
68886;SDS011;55925;51.764;6.402;2023-04-24T01:15:54;17.80;;;8.32;;
68886;SDS011;55925;51.764;6.402;2023-04-24T01:18:20;14.73;;;8.18;;
68886;SDS011;55925;51.764;6.402;2023-04-24T01:20:46;14.60;;;7.57;;
68886;SDS011;55925;51.764;6.402;2023-04-24T01:23:14;15.85;;;7.85;;
68886;SDS011;55925;51.764;6.402;2023-04-24T01:25:41;16.90;;;8.18;;
68886;SDS011;55925;51.764;6.402;2023-04-24T01:28:07;13.07;;;7.00;;
68886;SDS011;55925;51.764;6.402;2023-04-24T01:30:33;13.38;;;6.82;;
68886;SDS011;55925;51.764;6.402;2023-04-24T01:32:59;13.38;;;6.80;;
68886;SDS011;55925;51.764;6.402;2023-04-24T01:35:26;14.73;;;7.35;;
68886;SDS011;55925;51.764;6.402;2023-04-24T01:37:52;14.32;;;7.22;;
68886;SDS011;55925;51.764;6.402;2023-04-24T01:40:18;15.38;;;8.57;;
68886;SDS011;55925;51.764;6.402;2023-04-24T01:42:44;14.93;;;8.82;;
68886;SDS011;55925;51.764;6.402;2023-04-24T01:45:11;20.33;;;8.30;;
68886;SDS011;55925;51.764;6.402;2023-04-24T01:47:38;15.57;;;8.15;;
68886;SDS011;55925;51.764;6.402;2023-04-24T01:50:04;16.55;;;8.23;;
68886;SDS011;55925;51.764;6.402;2023-04-24T01:52:30;19.33;;;9.32;;
68886;SDS011;55925;51.764;6.402;2023-04-24T01:55:01;19.15;;;9.23;;
68886;SDS011;55925;51.764;6.402;2023-04-24T01:57:28;23.13;;;9.68;;
68886;SDS011;55925;51.764;6.402;2023-04-24T01:59:55;20.95;;;8.77;;
68886;SDS011;55925;51.764;6.402;2023-04-24T02:02:21;16.40;;;9.20;;
68886;SDS011;55925;51.764;6.402;2023-04-24T02:04:49;17.67;;;9.15;;
68886;SDS011;55925;51.764;6.402;2023-04-24T02:07:15;19.80;;;8.23;;
68886;SDS011;55925;51.764;6.402;2023-04-24T02:09:41;21.50;;;10.20;;
68886;SDS011;55925;51.764;6.402;2023-04-24T02:12:07;21.27;;;10.07;;
68886;SDS011;55925;51.764;6.402;2023-04-24T02:14:33;19.85;;;9.95;;
68886;SDS011;55925;51.764;6.402;2023-04-24T02:16:59;23.92;;;10.48;;
68886;SDS011;55925;51.764;6.402;2023-04-24T02:19:25;19.90;;;10.95;;
68886;SDS011;55925;51.764;6.402;2023-04-24T02:21:51;24.42;;;13.85;;
68886;SDS011;55925;51.764;6.402;2023-04-24T02:24:17;20.15;;;10.23;;
68886;SDS011;55925;51.764;6.402;2023-04-24T02:26:43;18.08;;;9.82;;
68886;SDS011;55925;51.764;6.402;2023-04-24T02:29:09;24.02;;;10.93;;
68886;SDS011;55925;51.764;6.402;2023-04-24T02:31:35;20.98;;;10.75;;
68886;SDS011;55925;51.764;6.402;2023-04-24T02:34:01;23.63;;;11.48;;
68886;SDS011;55925;51.764;6.402;2023-04-24T02:36:27;19.25;;;11.13;;
68886;SDS011;55925;51.764;6.402;2023-04-24T02:38:53;23.25;;;12.57;;
68886;SDS011;55925;51.764;6.402;2023-04-24T02:41:20;24.17;;;12.25;;
68886;SDS011;55925;51.764;6.402;2023-04-24T02:43:46;24.83;;;12.25;;
68886;SDS011;55925;51.764;6.402;2023-04-24T02:46:11;26.33;;;12.43;;
68886;SDS011;55925;51.764;6.402;2023-04-24T02:48:37;29.75;;;14.00;;
68886;SDS011;55925;51.764;6.402;2023-04-24T02:51:03;29.35;;;13.32;;
68886;SDS011;55925;51.764;6.402;2023-04-24T02:53:30;27.00;;;13.68;;
68886;SDS011;55925;51.764;6.402;2023-04-24T02:55:56;26.70;;;12.68;;
68886;SDS011;55925;51.764;6.402;2023-04-24T02:58:22;22.75;;;12.10;;
68886;SDS011;55925;51.764;6.402;2023-04-24T03:00:48;26.92;;;13.27;;
68886;SDS011;55925;51.764;6.402;2023-04-24T03:03:14;30.17;;;14.25;;
68886;SDS011;55925;51.764;6.402;2023-04-24T03:05:40;30.40;;;14.38;;
68886;SDS011;55925;51.764;6.402;2023-04-24T03:08:06;29.10;;;14.10;;
68886;SDS011;55925;51.764;6.402;2023-04-24T03:10:32;31.80;;;13.45;;
68886;SDS011;55925;51.764;6.402;2023-04-24T03:12:58;32.60;;;15.10;;
68886;SDS011;55925;51.764;6.402;2023-04-24T03:15:24;26.65;;;14.32;;
68886;SDS011;55925;51.764;6.402;2023-04-24T03:17:50;30.92;;;14.93;;
68886;SDS011;55925;51.764;6.402;2023-04-24T03:20:16;34.00;;;15.48;;
68886;SDS011;55925;51.764;6.402;2023-04-24T03:22:42;25.65;;;14.75;;
68886;SDS011;55925;51.764;6.402;2023-04-24T03:25:08;29.50;;;15.05;;
68886;SDS011;55925;51.764;6.402;2023-04-24T03:27:34;29.38;;;14.55;;
68886;SDS011;55925;51.764;6.402;2023-04-24T03:30:00;34.30;;;15.00;;
68886;SDS011;55925;51.764;6.402;2023-04-24T03:32:27;35.83;;;16.33;;
68886;SDS011;55925;51.764;6.402;2023-04-24T03:34:53;33.13;;;15.48;;
68886;SDS011;55925;51.764;6.402;2023-04-24T03:37:19;33.17;;;16.45;;
68886;SDS011;55925;51.764;6.402;2023-04-24T03:39:45;33.72;;;15.80;;
68886;SDS011;55925;51.764;6.402;2023-04-24T03:42:11;31.10;;;15.38;;
68886;SDS011;55925;51.764;6.402;2023-04-24T03:44:37;37.28;;;18.15;;
68886;SDS011;55925;51.764;6.402;2023-04-24T03:47:03;39.05;;;16.83;;
68886;SDS011;55925;51.764;6.402;2023-04-24T03:49:29;33.78;;;15.68;;
68886;SDS011;55925;51.764;6.402;2023-04-24T03:51:54;34.35;;;17.00;;
68886;SDS011;55925;51.764;6.402;2023-04-24T03:54:20;35.90;;;17.00;;
68886;SDS011;55925;51.764;6.402;2023-04-24T03:56:46;36.88;;;16.70;;
68886;SDS011;55925;51.764;6.402;2023-04-24T03:59:12;32.28;;;15.65;;
68886;SDS011;55925;51.764;6.402;2023-04-24T04:01:38;34.13;;;16.63;;
68886;SDS011;55925;51.764;6.402;2023-04-24T04:04:05;34.33;;;14.90;;
68886;SDS011;55925;51.764;6.402;2023-04-24T04:06:31;37.72;;;17.38;;
68886;SDS011;55925;51.764;6.402;2023-04-24T04:08:57;27.52;;;14.48;;
68886;SDS011;55925;51.764;6.402;2023-04-24T04:11:24;35.13;;;16.98;;
68886;SDS011;55925;51.764;6.402;2023-04-24T04:13:50;33.67;;;15.70;;
68886;SDS011;55925;51.764;6.402;2023-04-24T04:16:16;29.90;;;14.95;;
68886;SDS011;55925;51.764;6.402;2023-04-24T04:18:43;34.90;;;14.98;;
68886;SDS011;55925;51.764;6.402;2023-04-24T04:21:09;33.80;;;15.98;;
68886;SDS011;55925;51.764;6.402;2023-04-24T04:23:35;34.38;;;15.93;;
68886;SDS011;55925;51.764;6.402;2023-04-24T04:26:01;30.70;;;15.23;;
68886;SDS011;55925;51.764;6.402;2023-04-24T04:28:28;37.20;;;15.65;;
68886;SDS011;55925;51.764;6.402;2023-04-24T04:30:55;35.42;;;14.75;;
68886;SDS011;55925;51.764;6.402;2023-04-24T04:33:22;28.80;;;14.55;;
68886;SDS011;55925;51.764;6.402;2023-04-24T04:35:48;31.55;;;15.77;;
68886;SDS011;55925;51.764;6.402;2023-04-24T04:38:15;30.38;;;14.43;;
68886;SDS011;55925;51.764;6.402;2023-04-24T04:40:42;25.58;;;12.70;;
68886;SDS011;55925;51.764;6.402;2023-04-24T04:43:08;27.83;;;13.70;;
68886;SDS011;55925;51.764;6.402;2023-04-24T04:45:35;28.98;;;14.20;;
68886;SDS011;55925;51.764;6.402;2023-04-24T04:48:02;27.92;;;13.77;;
68886;SDS011;55925;51.764;6.402;2023-04-24T04:50:28;29.42;;;13.43;;
68886;SDS011;55925;51.764;6.402;2023-04-24T04:52:54;26.30;;;13.98;;
68886;SDS011;55925;51.764;6.402;2023-04-24T04:55:20;27.50;;;13.82;;
68886;SDS011;55925;51.764;6.402;2023-04-24T04:57:46;27.58;;;12.65;;
68886;SDS011;55925;51.764;6.402;2023-04-24T05:00:12;27.85;;;12.73;;
68886;SDS011;55925;51.764;6.402;2023-04-24T05:02:38;27.02;;;14.15;;
68886;SDS011;55925;51.764;6.402;2023-04-24T05:05:05;25.50;;;13.38;;
68886;SDS011;55925;51.764;6.402;2023-04-24T05:07:32;25.13;;;13.43;;
68886;SDS011;55925;51.764;6.402;2023-04-24T05:09:58;25.83;;;12.57;;
68886;SDS011;55925;51.764;6.402;2023-04-24T05:12:24;24.42;;;13.40;;
68886;SDS011;55925;51.764;6.402;2023-04-24T05:14:50;21.83;;;11.32;;
68886;SDS011;55925;51.764;6.402;2023-04-24T05:17:16;25.75;;;12.82;;
68886;SDS011;55925;51.764;6.402;2023-04-24T05:19:43;24.83;;;12.60;;
68886;SDS011;55925;51.764;6.402;2023-04-24T05:22:09;25.38;;;13.18;;
68886;SDS011;55925;51.764;6.402;2023-04-24T05:24:36;25.95;;;13.13;;
68886;SDS011;55925;51.764;6.402;2023-04-24T05:27:03;27.42;;;13.50;;
68886;SDS011;55925;51.764;6.402;2023-04-24T05:29:32;24.13;;;12.07;;
68886;SDS011;55925;51.764;6.402;2023-04-24T05:31:59;23.48;;;11.98;;
68886;SDS011;55925;51.764;6.402;2023-04-24T05:34:25;24.75;;;11.07;;
68886;SDS011;55925;51.764;6.402;2023-04-24T05:36:51;23.63;;;11.60;;
68886;SDS011;55925;51.764;6.402;2023-04-24T05:39:18;22.75;;;11.07;;
68886;SDS011;55925;51.764;6.402;2023-04-24T05:41:44;22.75;;;11.90;;
68886;SDS011;55925;51.764;6.402;2023-04-24T05:44:10;24.10;;;11.05;;
68886;SDS011;55925;51.764;6.402;2023-04-24T05:46:36;19.73;;;10.27;;
68886;SDS011;55925;51.764;6.402;2023-04-24T05:49:02;19.70;;;9.60;;
68886;SDS011;55925;51.764;6.402;2023-04-24T05:51:28;20.40;;;10.00;;
68886;SDS011;55925;51.764;6.402;2023-04-24T05:53:55;19.35;;;9.65;;
68886;SDS011;55925;51.764;6.402;2023-04-24T05:56:22;19.73;;;10.40;;
68886;SDS011;55925;51.764;6.402;2023-04-24T05:58:48;20.17;;;9.13;;
68886;SDS011;55925;51.764;6.402;2023-04-24T06:01:14;17.63;;;8.85;;
68886;SDS011;55925;51.764;6.402;2023-04-24T06:03:41;18.50;;;9.85;;
68886;SDS011;55925;51.764;6.402;2023-04-24T06:06:07;18.00;;;9.65;;
68886;SDS011;55925;51.764;6.402;2023-04-24T06:08:34;20.88;;;9.88;;
68886;SDS011;55925;51.764;6.402;2023-04-24T06:11:00;18.05;;;9.57;;
68886;SDS011;55925;51.764;6.402;2023-04-24T06:13:26;16.98;;;8.63;;
68886;SDS011;55925;51.764;6.402;2023-04-24T06:15:52;17.38;;;9.48;;
68886;SDS011;55925;51.764;6.402;2023-04-24T06:18:18;19.15;;;9.88;;
68886;SDS011;55925;51.764;6.402;2023-04-24T06:20:45;19.25;;;8.98;;
68886;SDS011;55925;51.764;6.402;2023-04-24T06:23:11;17.92;;;8.52;;
68886;SDS011;55925;51.764;6.402;2023-04-24T06:25:37;16.42;;;9.65;;
68886;SDS011;55925;51.764;6.402;2023-04-24T06:28:03;18.02;;;9.00;;
68886;SDS011;55925;51.764;6.402;2023-04-24T06:30:29;18.52;;;9.27;;
68886;SDS011;55925;51.764;6.402;2023-04-24T06:32:55;17.05;;;9.57;;
68886;SDS011;55925;51.764;6.402;2023-04-24T06:35:21;19.15;;;8.10;;
68886;SDS011;55925;51.764;6.402;2023-04-24T06:37:47;16.75;;;8.73;;
68886;SDS011;55925;51.764;6.402;2023-04-24T06:40:14;17.13;;;9.55;;
68886;SDS011;55925;51.764;6.402;2023-04-24T06:42:40;17.05;;;8.90;;
68886;SDS011;55925;51.764;6.402;2023-04-24T06:45:07;17.48;;;8.70;;
68886;SDS011;55925;51.764;6.402;2023-04-24T06:47:33;17.38;;;8.43;;
68886;SDS011;55925;51.764;6.402;2023-04-24T06:49:59;17.45;;;8.30;;
68886;SDS011;55925;51.764;6.402;2023-04-24T06:52:25;15.10;;;6.63;;
68886;SDS011;55925;51.764;6.402;2023-04-24T06:54:51;14.77;;;6.93;;
68886;SDS011;55925;51.764;6.402;2023-04-24T06:57:17;14.27;;;7.55;;
68886;SDS011;55925;51.764;6.402;2023-04-24T06:59:43;14.93;;;7.70;;
68886;SDS011;55925;51.764;6.402;2023-04-24T07:02:09;12.88;;;7.18;;
68886;SDS011;55925;51.764;6.402;2023-04-24T07:04:35;12.57;;;6.72;;
68886;SDS011;55925;51.764;6.402;2023-04-24T07:07:02;12.43;;;6.35;;
68886;SDS011;55925;51.764;6.402;2023-04-24T07:09:28;12.82;;;6.30;;
68886;SDS011;55925;51.764;6.402;2023-04-24T07:11:54;12.45;;;6.55;;
68886;SDS011;55925;51.764;6.402;2023-04-24T07:14:22;10.50;;;5.45;;
68886;SDS011;55925;51.764;6.402;2023-04-24T07:16:48;14.07;;;5.82;;
68886;SDS011;55925;51.764;6.402;2023-04-24T07:19:14;12.82;;;6.53;;
68886;SDS011;55925;51.764;6.402;2023-04-24T07:21:40;12.40;;;6.53;;
68886;SDS011;55925;51.764;6.402;2023-04-24T07:24:06;10.60;;;5.68;;
68886;SDS011;55925;51.764;6.402;2023-04-24T07:26:35;9.75;;;5.25;;
68886;SDS011;55925;51.764;6.402;2023-04-24T07:29:01;9.43;;;5.43;;
68886;SDS011;55925;51.764;6.402;2023-04-24T07:31:27;9.82;;;5.63;;
68886;SDS011;55925;51.764;6.402;2023-04-24T07:33:54;9.05;;;4.90;;
68886;SDS011;55925;51.764;6.402;2023-04-24T07:36:22;9.10;;;5.38;;
68886;SDS011;55925;51.764;6.402;2023-04-24T07:38:49;8.38;;;3.75;;
68886;SDS011;55925;51.764;6.402;2023-04-24T07:41:15;9.73;;;4.90;;
68886;SDS011;55925;51.764;6.402;2023-04-24T07:43:41;9.48;;;5.13;;
68886;SDS011;55925;51.764;6.402;2023-04-24T07:46:08;8.30;;;4.60;;
68886;SDS011;55925;51.764;6.402;2023-04-24T07:48:34;10.07;;;5.10;;
68886;SDS011;55925;51.764;6.402;2023-04-24T07:51:00;8.82;;;4.45;;
68886;SDS011;55925;51.764;6.402;2023-04-24T07:53:26;9.57;;;4.50;;
68886;SDS011;55925;51.764;6.402;2023-04-24T07:55:53;7.97;;;4.13;;
68886;SDS011;55925;51.764;6.402;2023-04-24T07:58:20;8.35;;;4.45;;
68886;SDS011;55925;51.764;6.402;2023-04-24T08:00:46;7.40;;;3.53;;
68886;SDS011;55925;51.764;6.402;2023-04-24T08:03:12;7.47;;;3.60;;
68886;SDS011;55925;51.764;6.402;2023-04-24T08:05:38;6.15;;;2.95;;
68886;SDS011;55925;51.764;6.402;2023-04-24T08:08:04;5.75;;;2.78;;
68886;SDS011;55925;51.764;6.402;2023-04-24T08:10:30;7.03;;;3.00;;
68886;SDS011;55925;51.764;6.402;2023-04-24T08:12:56;4.70;;;2.20;;
68886;SDS011;55925;51.764;6.402;2023-04-24T08:15:22;4.63;;;1.90;;
68886;SDS011;55925;51.764;6.402;2023-04-24T08:17:48;5.63;;;2.33;;
68886;SDS011;55925;51.764;6.402;2023-04-24T08:20:15;3.80;;;1.60;;
68886;SDS011;55925;51.764;6.402;2023-04-24T08:22:42;4.18;;;1.73;;
68886;SDS011;55925;51.764;6.402;2023-04-24T08:25:08;3.13;;;1.23;;
68886;SDS011;55925;51.764;6.402;2023-04-24T08:27:35;4.20;;;1.50;;
68886;SDS011;55925;51.764;6.402;2023-04-24T08:30:02;2.95;;;1.30;;
68886;SDS011;55925;51.764;6.402;2023-04-24T08:32:28;4.15;;;1.00;;
68886;SDS011;55925;51.764;6.402;2023-04-24T08:34:54;3.58;;;1.83;;
68886;SDS011;55925;51.764;6.402;2023-04-24T08:37:21;4.00;;;1.70;;
68886;SDS011;55925;51.764;6.402;2023-04-24T08:39:47;5.28;;;1.73;;
68886;SDS011;55925;51.764;6.402;2023-04-24T08:42:13;6.32;;;2.92;;
68886;SDS011;55925;51.764;6.402;2023-04-24T08:44:40;8.68;;;3.03;;
68886;SDS011;55925;51.764;6.402;2023-04-24T08:47:07;8.35;;;4.00;;
68886;SDS011;55925;51.764;6.402;2023-04-24T08:49:33;10.75;;;4.82;;
68886;SDS011;55925;51.764;6.402;2023-04-24T08:51:59;11.13;;;6.15;;
68886;SDS011;55925;51.764;6.402;2023-04-24T08:54:26;12.40;;;6.65;;
68886;SDS011;55925;51.764;6.402;2023-04-24T08:56:52;13.55;;;6.40;;
68886;SDS011;55925;51.764;6.402;2023-04-24T08:59:19;14.45;;;6.43;;
68886;SDS011;55925;51.764;6.402;2023-04-24T09:01:47;16.85;;;7.20;;
68886;SDS011;55925;51.764;6.402;2023-04-24T09:04:13;15.00;;;7.15;;
68886;SDS011;55925;51.764;6.402;2023-04-24T09:06:41;13.68;;;7.13;;
68886;SDS011;55925;51.764;6.402;2023-04-24T09:09:07;12.82;;;6.50;;
68886;SDS011;55925;51.764;6.402;2023-04-24T09:11:34;14.98;;;6.00;;
68886;SDS011;55925;51.764;6.402;2023-04-24T09:14:00;12.77;;;6.05;;
68886;SDS011;55925;51.764;6.402;2023-04-24T09:16:27;14.02;;;6.53;;
68886;SDS011;55925;51.764;6.402;2023-04-24T09:18:53;12.98;;;6.15;;
68886;SDS011;55925;51.764;6.402;2023-04-24T09:21:20;13.23;;;6.30;;
68886;SDS011;55925;51.764;6.402;2023-04-24T09:23:47;13.10;;;6.68;;
68886;SDS011;55925;51.764;6.402;2023-04-24T09:26:22;13.30;;;6.65;;
68886;SDS011;55925;51.764;6.402;2023-04-24T09:28:49;16.38;;;6.93;;
68886;SDS011;55925;51.764;6.402;2023-04-24T09:31:15;17.25;;;7.03;;
68886;SDS011;55925;51.764;6.402;2023-04-24T09:33:59;13.68;;;6.53;;
68886;SDS011;55925;51.764;6.402;2023-04-24T09:38:57;14.35;;;6.78;;
68886;SDS011;55925;51.764;6.402;2023-04-24T09:41:23;14.70;;;6.85;;
68886;SDS011;55925;51.764;6.402;2023-04-24T09:43:49;12.32;;;7.15;;
68886;SDS011;55925;51.764;6.402;2023-04-24T09:46:15;13.13;;;7.00;;
68886;SDS011;55925;51.764;6.402;2023-04-24T09:48:44;13.07;;;6.25;;
68886;SDS011;55925;51.764;6.402;2023-04-24T09:51:10;11.73;;;5.05;;
68886;SDS011;55925;51.764;6.402;2023-04-24T09:53:36;9.52;;;4.13;;
68886;SDS011;55925;51.764;6.402;2023-04-24T09:56:05;12.75;;;4.97;;
68886;SDS011;55925;51.764;6.402;2023-04-24T09:58:34;14.55;;;5.07;;
68886;SDS011;55925;51.764;6.402;2023-04-24T10:01:00;12.70;;;5.20;;
68886;SDS011;55925;51.764;6.402;2023-04-24T10:03:31;14.18;;;4.90;;
68886;SDS011;55925;51.764;6.402;2023-04-24T10:06:01;10.18;;;4.63;;
68886;SDS011;55925;51.764;6.402;2023-04-24T10:08:32;11.73;;;4.60;;
68886;SDS011;55925;51.764;6.402;2023-04-24T10:10:58;12.43;;;4.05;;
68886;SDS011;55925;51.764;6.402;2023-04-24T10:13:25;17.55;;;5.05;;
68886;SDS011;55925;51.764;6.402;2023-04-24T10:15:51;16.23;;;5.18;;
68886;SDS011;55925;51.764;6.402;2023-04-24T10:18:17;12.93;;;4.40;;
68886;SDS011;55925;51.764;6.402;2023-04-24T10:20:45;10.55;;;3.85;;
68886;SDS011;55925;51.764;6.402;2023-04-24T10:23:12;8.48;;;3.55;;
68886;SDS011;55925;51.764;6.402;2023-04-24T10:25:38;12.40;;;4.07;;
68886;SDS011;55925;51.764;6.402;2023-04-24T10:28:04;11.07;;;3.53;;
68886;SDS011;55925;51.764;6.402;2023-04-24T10:30:33;9.13;;;3.90;;
68886;SDS011;55925;51.764;6.402;2023-04-24T10:33:00;7.68;;;3.10;;
68886;SDS011;55925;51.764;6.402;2023-04-24T10:35:26;10.32;;;3.25;;
68886;SDS011;55925;51.764;6.402;2023-04-24T10:40:25;11.65;;;3.92;;
68886;SDS011;55925;51.764;6.402;2023-04-24T10:42:52;12.50;;;3.42;;
68886;SDS011;55925;51.764;6.402;2023-04-24T10:45:19;12.80;;;3.70;;
68886;SDS011;55925;51.764;6.402;2023-04-24T10:47:53;7.68;;;3.45;;
68886;SDS011;55925;51.764;6.402;2023-04-24T10:50:22;12.15;;;3.45;;
68886;SDS011;55925;51.764;6.402;2023-04-24T10:52:48;9.15;;;2.95;;
68886;SDS011;55925;51.764;6.402;2023-04-24T10:58:04;8.80;;;3.22;;
68886;SDS011;55925;51.764;6.402;2023-04-24T11:00:30;8.75;;;3.05;;
68886;SDS011;55925;51.764;6.402;2023-04-24T11:02:56;10.75;;;2.63;;
68886;SDS011;55925;51.764;6.402;2023-04-24T11:05:24;8.38;;;3.20;;
68886;SDS011;55925;51.764;6.402;2023-04-24T11:08:15;7.03;;;2.97;;
68886;SDS011;55925;51.764;6.402;2023-04-24T11:10:45;9.80;;;3.00;;
68886;SDS011;55925;51.764;6.402;2023-04-24T11:13:14;9.30;;;3.25;;
68886;SDS011;55925;51.764;6.402;2023-04-24T11:15:41;7.32;;;2.50;;
68886;SDS011;55925;51.764;6.402;2023-04-24T11:18:12;8.32;;;2.67;;
68886;SDS011;55925;51.764;6.402;2023-04-24T11:20:41;11.07;;;2.95;;
68886;SDS011;55925;51.764;6.402;2023-04-24T11:23:07;10.75;;;3.47;;
68886;SDS011;55925;51.764;6.402;2023-04-24T11:25:33;12.50;;;3.33;;
68886;SDS011;55925;51.764;6.402;2023-04-24T11:28:04;9.20;;;2.40;;
68886;SDS011;55925;51.764;6.402;2023-04-24T11:30:31;6.93;;;2.08;;
68886;SDS011;55925;51.764;6.402;2023-04-24T11:33:02;7.60;;;2.25;;
68886;SDS011;55925;51.764;6.402;2023-04-24T11:35:28;6.35;;;1.83;;
68886;SDS011;55925;51.764;6.402;2023-04-24T11:37:55;10.77;;;3.00;;
68886;SDS011;55925;51.764;6.402;2023-04-24T11:40:21;6.38;;;2.33;;
68886;SDS011;55925;51.764;6.402;2023-04-24T11:42:49;8.75;;;2.15;;
68886;SDS011;55925;51.764;6.402;2023-04-24T11:45:16;6.85;;;2.45;;
68886;SDS011;55925;51.764;6.402;2023-04-24T11:47:43;5.38;;;2.30;;
68886;SDS011;55925;51.764;6.402;2023-04-24T11:50:11;8.27;;;2.33;;
68886;SDS011;55925;51.764;6.402;2023-04-24T11:52:38;8.13;;;2.22;;
68886;SDS011;55925;51.764;6.402;2023-04-24T11:55:06;5.72;;;2.15;;
68886;SDS011;55925;51.764;6.402;2023-04-24T11:57:32;6.95;;;2.10;;
68886;SDS011;55925;51.764;6.402;2023-04-24T12:00:03;5.88;;;1.80;;
68886;SDS011;55925;51.764;6.402;2023-04-24T12:02:33;3.53;;;1.75;;
68886;SDS011;55925;51.764;6.402;2023-04-24T12:04:59;6.57;;;1.73;;
68886;SDS011;55925;51.764;6.402;2023-04-24T12:07:25;5.10;;;1.50;;
68886;SDS011;55925;51.764;6.402;2023-04-24T12:09:57;7.03;;;1.70;;
68886;SDS011;55925;51.764;6.402;2023-04-24T12:12:27;5.22;;;1.80;;
68886;SDS011;55925;51.764;6.402;2023-04-24T12:14:54;8.68;;;2.00;;
68886;SDS011;55925;51.764;6.402;2023-04-24T12:17:27;7.28;;;2.25;;
68886;SDS011;55925;51.764;6.402;2023-04-24T12:19:57;8.65;;;2.08;;
68886;SDS011;55925;51.764;6.402;2023-04-24T12:22:24;5.25;;;1.67;;
68886;SDS011;55925;51.764;6.402;2023-04-24T12:25:00;4.38;;;2.22;;
68886;SDS011;55925;51.764;6.402;2023-04-24T12:27:30;4.15;;;1.70;;
68886;SDS011;55925;51.764;6.402;2023-04-24T12:29:57;4.35;;;1.55;;
68886;SDS011;55925;51.764;6.402;2023-04-24T12:32:23;4.85;;;1.60;;
68886;SDS011;55925;51.764;6.402;2023-04-24T12:34:53;4.25;;;1.60;;
68886;SDS011;55925;51.764;6.402;2023-04-24T12:37:19;4.65;;;2.13;;
68886;SDS011;55925;51.764;6.402;2023-04-24T12:42:25;4.07;;;1.73;;
68886;SDS011;55925;51.764;6.402;2023-04-24T12:44:55;6.50;;;2.17;;
68886;SDS011;55925;51.764;6.402;2023-04-24T12:47:21;5.28;;;1.90;;
68886;SDS011;55925;51.764;6.402;2023-04-24T12:49:47;6.80;;;1.75;;
68886;SDS011;55925;51.764;6.402;2023-04-24T12:52:15;4.63;;;1.60;;
68886;SDS011;55925;51.764;6.402;2023-04-24T12:54:42;6.55;;;2.03;;
68886;SDS011;55925;51.764;6.402;2023-04-24T12:57:09;6.30;;;1.92;;
68886;SDS011;55925;51.764;6.402;2023-04-24T12:59:34;4.72;;;2.05;;
68886;SDS011;55925;51.764;6.402;2023-04-24T13:02:00;4.60;;;1.95;;
68886;SDS011;55925;51.764;6.402;2023-04-24T13:04:26;6.43;;;1.83;;
68886;SDS011;55925;51.764;6.402;2023-04-24T13:06:52;5.95;;;2.15;;
68886;SDS011;55925;51.764;6.402;2023-04-24T13:09:18;4.53;;;1.80;;
68886;SDS011;55925;51.764;6.402;2023-04-24T13:11:44;6.40;;;1.90;;
68886;SDS011;55925;51.764;6.402;2023-04-24T13:14:10;6.00;;;1.77;;
68886;SDS011;55925;51.764;6.402;2023-04-24T13:16:36;4.20;;;1.70;;
68886;SDS011;55925;51.764;6.402;2023-04-24T13:19:02;6.63;;;1.60;;
68886;SDS011;55925;51.764;6.402;2023-04-24T13:21:29;4.63;;;2.05;;
68886;SDS011;55925;51.764;6.402;2023-04-24T13:23:55;4.28;;;1.80;;
68886;SDS011;55925;51.764;6.402;2023-04-24T13:26:21;6.82;;;2.15;;
68886;SDS011;55925;51.764;6.402;2023-04-24T13:28:47;6.07;;;2.08;;
68886;SDS011;55925;51.764;6.402;2023-04-24T13:31:13;6.20;;;1.98;;
68886;SDS011;55925;51.764;6.402;2023-04-24T13:33:39;4.93;;;1.90;;
68886;SDS011;55925;51.764;6.402;2023-04-24T13:36:05;7.20;;;2.42;;
68886;SDS011;55925;51.764;6.402;2023-04-24T13:38:31;6.75;;;2.10;;
68886;SDS011;55925;51.764;6.402;2023-04-24T13:40:57;5.57;;;1.95;;
68886;SDS011;55925;51.764;6.402;2023-04-24T13:43:23;3.85;;;1.58;;
68886;SDS011;55925;51.764;6.402;2023-04-24T13:45:50;6.00;;;1.58;;
68886;SDS011;55925;51.764;6.402;2023-04-24T13:48:16;4.68;;;1.60;;
68886;SDS011;55925;51.764;6.402;2023-04-24T13:50:42;5.32;;;1.50;;
68886;SDS011;55925;51.764;6.402;2023-04-24T13:53:09;4.30;;;1.88;;
68886;SDS011;55925;51.764;6.402;2023-04-24T13:55:35;6.50;;;1.60;;
68886;SDS011;55925;51.764;6.402;2023-04-24T13:58:01;6.07;;;1.50;;
68886;SDS011;55925;51.764;6.402;2023-04-24T14:00:28;5.07;;;1.35;;
68886;SDS011;55925;51.764;6.402;2023-04-24T14:02:54;4.00;;;1.90;;
68886;SDS011;55925;51.764;6.402;2023-04-24T14:05:20;4.18;;;1.83;;
68886;SDS011;55925;51.764;6.402;2023-04-24T14:07:46;6.05;;;1.63;;
68886;SDS011;55925;51.764;6.402;2023-04-24T14:10:12;4.47;;;1.80;;
68886;SDS011;55925;51.764;6.402;2023-04-24T14:12:38;3.95;;;1.58;;
68886;SDS011;55925;51.764;6.402;2023-04-24T14:15:05;7.25;;;1.80;;
68886;SDS011;55925;51.764;6.402;2023-04-24T14:17:31;7.30;;;2.10;;
68886;SDS011;55925;51.764;6.402;2023-04-24T14:19:57;4.65;;;1.92;;
68886;SDS011;55925;51.764;6.402;2023-04-24T14:22:25;6.72;;;1.88;;
68886;SDS011;55925;51.764;6.402;2023-04-24T14:24:51;6.18;;;1.95;;
68886;SDS011;55925;51.764;6.402;2023-04-24T14:27:17;7.03;;;1.90;;
68886;SDS011;55925;51.764;6.402;2023-04-24T14:29:43;6.57;;;2.15;;
68886;SDS011;55925;51.764;6.402;2023-04-24T14:32:10;5.82;;;1.90;;
68886;SDS011;55925;51.764;6.402;2023-04-24T14:34:36;7.88;;;2.17;;
68886;SDS011;55925;51.764;6.402;2023-04-24T14:37:02;5.75;;;1.80;;
68886;SDS011;55925;51.764;6.402;2023-04-24T14:39:28;7.63;;;2.05;;
68886;SDS011;55925;51.764;6.402;2023-04-24T14:41:54;6.72;;;2.00;;